Time;durP1;ratioP1;P1;durP2;ratioP2;P2;SDS_P1;SDS_P2;PMS_P1;PMS_P2;Temp;Humidity;BMP_temperature;BMP_pressure;BME280_temperature;BME280_humidity;BME280_pressure;Samples;Min_cycle;Max_cycle;Signal;HPM_P1;HPM_P2
2024/04/09 00:01:36;;;;;;;;;;;15.00;99.90;;;;;;5463873;26;19935;-62
2024/04/09 00:04:04;;;;;;;;;;;14.90;99.90;;;;;;5440213;26;20280;-63
2024/04/09 00:06:31;;;;;;;;;;;14.90;99.90;;;;;;5472063;26;19964;-63
2024/04/09 00:08:58;;;;;;;;;;;14.80;99.90;;;;;;5469405;26;20387;-63
2024/04/09 00:11:25;;;;;;;;;;;14.70;99.90;;;;;;5437742;26;19929;-63
2024/04/09 00:13:52;;;;;;;;;;;14.80;99.90;;;;;;5470932;26;19932;-63
2024/04/09 00:16:22;;;;;;;;;;;14.80;99.90;;;;;;5475850;26;19932;-62
2024/04/09 00:18:49;;;;;;;;;;;14.70;99.90;;;;;;5433945;26;19928;-63
2024/04/09 00:21:21;;;;;;;;;;;14.70;99.90;;;;;;5441690;26;19931;-63
2024/04/09 00:23:48;;;;;;;;;;;14.70;99.90;;;;;;5462438;26;20364;-63
2024/04/09 00:26:16;;;;;;;;;;;14.70;99.90;;;;;;5447969;26;20339;-63
2024/04/09 00:28:43;;;;;;;;;;;14.70;99.90;;;;;;5471923;26;20003;-63
2024/04/09 00:31:10;;;;;;;;;;;14.70;99.90;;;;;;5452226;26;19952;-63
2024/04/09 00:33:36;;;;;;;;;;;14.70;99.90;;;;;;5469286;26;20383;-63
2024/04/09 00:36:03;;;;;;;;;;;14.70;99.90;;;;;;5473493;26;19943;-63
2024/04/09 00:38:30;;;;;;;;;;;14.70;99.90;;;;;;5472663;26;19928;-63
2024/04/09 00:40:57;;;;;;;;;;;14.60;99.90;;;;;;5471149;26;19956;-63
2024/04/09 00:43:24;;;;;;;;;;;14.60;99.90;;;;;;5446051;26;20312;-63
2024/04/09 00:45:51;;;;;;;;;;;14.50;99.90;;;;;;5443596;26;19932;-63
2024/04/09 00:48:18;;;;;;;;;;;14.50;99.90;;;;;;5464327;26;19929;-64
2024/04/09 00:50:45;;;;;;;;;;;14.40;99.90;;;;;;5466865;26;20409;-62
2024/04/09 00:53:12;;;;;;;;;;;14.30;99.90;;;;;;5452879;26;19928;-63
2024/04/09 00:55:42;;;;;;;;;;;14.30;99.90;;;;;;5444610;26;19928;-63
2024/04/09 00:58:15;;;;;;;;;;;14.20;99.90;;;;;;5477622;26;19928;-63
2024/04/09 01:00:43;;;;;;;;;;;14.20;99.90;;;;;;5468167;26;19961;-63
2024/04/09 01:03:10;;;;;;;;;;;14.20;99.90;;;;;;5453847;26;19955;-63
2024/04/09 01:05:42;;;;;;;;;;;14.20;99.90;;;;;;5467380;26;19935;-63
2024/04/09 01:08:13;;;;;;;;;;;14.20;99.90;;;;;;5475055;26;19936;-63
2024/04/09 01:10:40;;;;;;;;;;;14.10;99.90;;;;;;5466218;26;19929;-63
2024/04/09 01:13:07;;;;;;;;;;;14.10;99.90;;;;;;5463021;26;19928;-63
2024/04/09 01:15:35;;;;;;;;;;;14.10;99.90;;;;;;5447611;26;20433;-63
2024/04/09 01:18:03;;;;;;;;;;;14.00;99.90;;;;;;5462877;26;19935;-62
2024/04/09 01:20:29;;;;;;;;;;;14.00;99.90;;;;;;5456319;26;19960;-63
2024/04/09 01:22:56;;;;;;;;;;;14.00;99.90;;;;;;5451660;26;19935;-63
2024/04/09 01:25:23;;;;;;;;;;;14.00;99.90;;;;;;5465995;26;20277;-63
2024/04/09 01:27:51;;;;;;;;;;;13.90;99.90;;;;;;5436004;26;19928;-63
2024/04/09 01:30:18;;;;;;;;;;;13.90;99.90;;;;;;5470887;26;19963;-63
2024/04/09 01:32:51;;;;;;;;;;;13.80;99.90;;;;;;5471880;26;20360;-63
2024/04/09 01:35:23;;;;;;;;;;;13.80;99.90;;;;;;5448646;26;19956;-63
2024/04/09 01:37:51;;;;;;;;;;;13.70;99.90;;;;;;5473094;26;19955;-63
2024/04/09 01:40:18;;;;;;;;;;;13.70;99.90;;;;;;5435523;26;19937;-63
2024/04/09 01:42:45;;;;;;;;;;;13.70;99.90;;;;;;5460775;26;19928;-63
2024/04/09 01:45:17;;;;;;;;;;;13.70;99.90;;;;;;5474644;26;19928;-63
2024/04/09 01:47:44;;;;;;;;;;;13.70;99.90;;;;;;5467583;26;19952;-63
2024/04/09 01:50:11;;;;;;;;;;;13.70;99.90;;;;;;5467089;26;19928;-63
2024/04/09 01:52:40;;;;;;;;;;;13.60;99.90;;;;;;5455583;26;19928;-63
2024/04/09 01:55:07;;;;;;;;;;;13.50;99.90;;;;;;5476573;26;19964;-63
2024/04/09 01:57:35;;;;;;;;;;;13.50;99.90;;;;;;5474286;26;19934;-63
2024/04/09 02:00:11;;;;;;;;;;;13.40;99.90;;;;;;5471089;26;19968;-63
2024/04/09 02:02:40;;;;;;;;;;;13.40;99.90;;;;;;5477659;26;19929;-63
2024/04/09 02:05:08;;;;;;;;;;;13.30;99.90;;;;;;5471618;26;19940;-63
2024/04/09 02:07:34;;;;;;;;;;;13.30;99.90;;;;;;5466809;26;19940;-63
2024/04/09 02:10:03;;;;;;;;;;;13.20;99.90;;;;;;5462984;26;19940;-63
2024/04/09 02:12:29;;;;;;;;;;;13.20;99.90;;;;;;5467044;26;19929;-63
2024/04/09 02:15:03;;;;;;;;;;;13.20;99.90;;;;;;5463679;26;19960;-63
2024/04/09 02:17:30;;;;;;;;;;;13.20;99.90;;;;;;5477296;26;20507;-63
2024/04/09 02:19:57;;;;;;;;;;;13.20;99.90;;;;;;5471998;26;19952;-63
2024/04/09 02:22:24;;;;;;;;;;;13.20;99.90;;;;;;5446204;26;19935;-63
2024/04/09 02:24:51;;;;;;;;;;;13.20;99.90;;;;;;5473869;26;19939;-63
2024/04/09 02:27:21;;;;;;;;;;;13.20;99.90;;;;;;5476818;26;19932;-63
2024/04/09 02:29:48;;;;;;;;;;;13.10;99.90;;;;;;5466209;26;19928;-63
2024/04/09 02:32:14;;;;;;;;;;;13.10;99.90;;;;;;5456478;26;19928;-63
2024/04/09 02:34:41;;;;;;;;;;;13.10;99.90;;;;;;5471761;26;20297;-63
2024/04/09 02:37:13;;;;;;;;;;;13.10;99.90;;;;;;5466920;26;19934;-63
2024/04/09 02:39:40;;;;;;;;;;;13.10;99.90;;;;;;5466550;26;19953;-63
2024/04/09 02:42:13;;;;;;;;;;;13.10;99.90;;;;;;5472411;26;19929;-63
2024/04/09 02:44:44;;;;;;;;;;;13.10;99.90;;;;;;5465849;26;19935;-63
2024/04/09 02:47:11;;;;;;;;;;;13.00;99.90;;;;;;5475165;26;19970;-63
2024/04/09 02:49:43;;;;;;;;;;;13.00;99.90;;;;;;5443026;26;19997;-63
2024/04/09 02:52:17;;;;;;;;;;;13.00;99.90;;;;;;5475662;26;19932;-63
2024/04/09 02:54:43;;;;;;;;;;;13.00;99.90;;;;;;5466848;26;19929;-63
2024/04/09 02:57:10;;;;;;;;;;;13.00;99.90;;;;;;5455530;26;19934;-63
2024/04/09 02:59:42;;;;;;;;;;;13.00;99.90;;;;;;5438225;26;19928;-63
2024/04/09 03:02:14;;;;;;;;;;;13.00;99.90;;;;;;5462428;26;21051;-63
2024/04/09 03:04:41;;;;;;;;;;;12.90;99.90;;;;;;5450512;26;19928;-63
2024/04/09 03:07:13;;;;;;;;;;;12.90;99.90;;;;;;5422359;26;19956;-63
2024/04/09 03:09:40;;;;;;;;;;;12.90;99.90;;;;;;5435159;26;19928;-63
2024/04/09 03:12:12;;;;;;;;;;;12.90;99.90;;;;;;5447217;26;20380;-63
2024/04/09 03:14:43;;;;;;;;;;;12.90;99.90;;;;;;5469895;26;19928;-63
2024/04/09 03:17:16;;;;;;;;;;;12.90;99.90;;;;;;5425739;26;19943;-63
2024/04/09 03:19:50;;;;;;;;;;;12.90;99.90;;;;;;5477633;26;19996;-63
2024/04/09 03:22:17;;;;;;;;;;;12.90;99.90;;;;;;5443719;26;19935;-63
2024/04/09 03:24:46;;;;;;;;;;;12.90;99.90;;;;;;5461063;26;19928;-63
2024/04/09 03:27:13;;;;;;;;;;;12.80;99.90;;;;;;5439966;26;19932;-63
2024/04/09 03:29:47;;;;;;;;;;;12.80;99.90;;;;;;5462021;26;19932;-63
2024/04/09 03:32:14;;;;;;;;;;;12.80;99.90;;;;;;5432888;26;19957;-63
2024/04/09 03:34:41;;;;;;;;;;;12.70;99.90;;;;;;5455505;26;19928;-63
2024/04/09 03:37:08;;;;;;;;;;;12.70;99.90;;;;;;5470938;26;20395;-63
2024/04/09 03:39:35;;;;;;;;;;;12.70;99.90;;;;;;5467998;26;20309;-63
2024/04/09 03:42:07;;;;;;;;;;;12.70;99.90;;;;;;5471944;26;19928;-63
2024/04/09 03:44:33;;;;;;;;;;;12.70;99.90;;;;;;5472469;26;19964;-63
2024/04/09 03:47:05;;;;;;;;;;;12.70;99.90;;;;;;5451064;26;20812;-63
2024/04/09 03:49:36;;;;;;;;;;;12.70;99.90;;;;;;5463512;26;19928;-63
2024/04/09 03:52:03;;;;;;;;;;;12.70;99.90;;;;;;5456906;26;19953;-63
2024/04/09 03:54:31;;;;;;;;;;;12.70;99.90;;;;;;5445189;26;20385;-63
2024/04/09 03:57:03;;;;;;;;;;;12.70;99.90;;;;;;5461677;26;20280;-63
2024/04/09 03:59:35;;;;;;;;;;;12.60;99.90;;;;;;5461731;26;19940;-63
2024/04/09 04:02:03;;;;;;;;;;;12.60;99.90;;;;;;5467514;26;19939;-64
2024/04/09 04:04:30;;;;;;;;;;;12.60;99.90;;;;;;5442294;26;20282;-63
2024/04/09 04:07:02;;;;;;;;;;;12.50;99.90;;;;;;5471999;26;19934;-63
2024/04/09 04:09:28;;;;;;;;;;;12.60;99.90;;;;;;5473568;26;19935;-63
2024/04/09 04:11:55;;;;;;;;;;;12.60;99.90;;;;;;5466918;26;19932;-63
2024/04/09 04:14:27;;;;;;;;;;;12.80;99.90;;;;;;5448955;26;19928;-63
2024/04/09 04:16:54;;;;;;;;;;;13.10;99.90;;;;;;5468606;26;19928;-63
2024/04/09 04:19:21;;;;;;;;;;;13.30;99.90;;;;;;5448629;26;19928;-62
2024/04/09 04:21:47;;;;;;;;;;;13.30;99.90;;;;;;5439114;26;19928;-63
2024/04/09 04:24:14;;;;;;;;;;;13.40;99.90;;;;;;5472532;26;19928;-63
2024/04/09 04:26:46;;;;;;;;;;;13.50;99.90;;;;;;5461325;26;19929;-63
2024/04/09 04:29:12;;;;;;;;;;;13.60;99.90;;;;;;5477358;26;19956;-63
2024/04/09 04:31:44;;;;;;;;;;;13.60;99.90;;;;;;5477947;26;19936;-63
2024/04/09 04:34:11;;;;;;;;;;;13.60;99.90;;;;;;5478122;26;20026;-63
2024/04/09 04:36:38;;;;;;;;;;;13.60;99.90;;;;;;5453210;26;19927;-63
2024/04/09 04:39:11;;;;;;;;;;;13.50;99.90;;;;;;5444711;26;19936;-63
2024/04/09 04:41:38;;;;;;;;;;;13.40;99.90;;;;;;5473900;26;19928;-64
2024/04/09 04:44:05;;;;;;;;;;;13.40;99.90;;;;;;5475003;26;19997;-64
2024/04/09 04:46:32;;;;;;;;;;;13.30;99.90;;;;;;5466416;26;19928;-63
2024/04/09 04:49:03;;;;;;;;;;;13.30;99.90;;;;;;5435315;26;19939;-63
2024/04/09 04:51:30;;;;;;;;;;;13.30;99.90;;;;;;5471485;26;19996;-63
2024/04/09 04:53:57;;;;;;;;;;;13.20;99.90;;;;;;5472398;26;20372;-62
2024/04/09 04:56:24;;;;;;;;;;;13.20;99.90;;;;;;5446699;26;19956;-62
2024/04/09 04:58:51;;;;;;;;;;;13.20;99.90;;;;;;5474457;26;19935;-63
2024/04/09 05:01:17;;;;;;;;;;;13.30;99.90;;;;;;5477298;26;19956;-63
2024/04/09 05:03:44;;;;;;;;;;;13.30;99.90;;;;;;5452546;26;20306;-62
2024/04/09 05:06:12;;;;;;;;;;;13.30;99.90;;;;;;5475274;25;19955;-62
2024/04/09 05:08:38;;;;;;;;;;;13.30;99.90;;;;;;5480573;26;19935;-62
2024/04/09 05:11:10;;;;;;;;;;;13.20;99.90;;;;;;5470694;26;19932;-62
2024/04/09 05:13:37;;;;;;;;;;;12.90;99.90;;;;;;5470143;26;20400;-62
2024/04/09 05:16:09;;;;;;;;;;;12.70;99.90;;;;;;5458196;26;19928;-62
2024/04/09 05:18:35;;;;;;;;;;;12.40;99.90;;;;;;5483192;26;20388;-63
2024/04/09 05:21:04;;;;;;;;;;;12.40;99.90;;;;;;5442107;26;19932;-62
2024/04/09 05:23:30;;;;;;;;;;;12.40;99.90;;;;;;5489929;26;19935;-62
2024/04/09 05:25:57;;;;;;;;;;;12.40;99.90;;;;;;5457198;26;19935;-63
2024/04/09 05:28:24;;;;;;;;;;;12.50;99.90;;;;;;5477796;26;19980;-63
2024/04/09 05:30:51;;;;;;;;;;;12.70;99.90;;;;;;5475618;26;19961;-63
2024/04/09 05:33:18;;;;;;;;;;;12.80;99.90;;;;;;5453096;26;19932;-63
2024/04/09 05:35:45;;;;;;;;;;;12.80;99.90;;;;;;5465453;26;19934;-63
2024/04/09 05:38:16;;;;;;;;;;;13.00;99.90;;;;;;5460827;26;20284;-64
2024/04/09 05:40:43;;;;;;;;;;;13.00;99.90;;;;;;5468588;26;20009;-62
2024/04/09 05:43:18;;;;;;;;;;;13.00;99.90;;;;;;5423735;26;19928;-63
2024/04/09 05:45:50;;;;;;;;;;;13.00;99.90;;;;;;5461732;26;19928;-63
2024/04/09 05:48:21;;;;;;;;;;;12.90;99.90;;;;;;5478775;26;19962;-63
2024/04/09 05:50:50;;;;;;;;;;;12.90;99.90;;;;;;5470950;26;19928;-62
2024/04/09 05:53:17;;;;;;;;;;;13.00;99.90;;;;;;5452818;26;19929;-63
2024/04/09 05:55:52;;;;;;;;;;;13.10;99.90;;;;;;5472471;26;19956;-63
2024/04/09 05:58:20;;;;;;;;;;;13.20;99.90;;;;;;5476456;26;19929;-63
2024/04/09 06:00:47;;;;;;;;;;;13.20;99.90;;;;;;5473548;26;19969;-63
2024/04/09 06:03:14;;;;;;;;;;;13.20;99.90;;;;;;5461112;26;19940;-63
2024/04/09 06:05:45;;;;;;;;;;;13.20;99.90;;;;;;5450665;26;19933;-63
2024/04/09 06:08:12;;;;;;;;;;;13.20;99.90;;;;;;5461874;26;20334;-63
2024/04/09 06:10:45;;;;;;;;;;;13.20;99.90;;;;;;5480310;26;20032;-63
2024/04/09 06:13:12;;;;;;;;;;;13.30;99.90;;;;;;5470471;26;20419;-63
2024/04/09 06:15:39;;;;;;;;;;;13.40;99.90;;;;;;5468908;26;20001;-63
2024/04/09 06:18:06;;;;;;;;;;;13.40;99.90;;;;;;5476439;26;19928;-63
2024/04/09 06:20:33;;;;;;;;;;;13.50;99.90;;;;;;5479146;26;19935;-63
2024/04/09 06:23:00;;;;;;;;;;;13.50;99.90;;;;;;5476564;26;19932;-63
2024/04/09 06:25:26;;;;;;;;;;;13.60;99.90;;;;;;5434951;26;19935;-63
2024/04/09 06:27:53;;;;;;;;;;;13.60;99.90;;;;;;5473652;26;19936;-63
2024/04/09 06:30:20;;;;;;;;;;;13.70;99.90;;;;;;5468389;26;20289;-63
2024/04/09 06:32:52;;;;;;;;;;;13.70;99.90;;;;;;5456739;26;20385;-63
2024/04/09 06:35:19;;;;;;;;;;;13.80;99.90;;;;;;5464917;26;19956;-63
2024/04/09 06:37:45;;;;;;;;;;;13.90;99.90;;;;;;5455781;26;19928;-63
2024/04/09 06:40:12;;;;;;;;;;;14.10;99.90;;;;;;5436688;26;19997;-63
2024/04/09 06:42:39;;;;;;;;;;;14.50;99.90;;;;;;5444625;26;20701;-63
2024/04/09 06:45:06;;;;;;;;;;;14.90;99.90;;;;;;5475076;26;19934;-63
2024/04/09 06:47:33;;;;;;;;;;;15.20;99.90;;;;;;5473068;26;19967;-63
2024/04/09 06:50:05;;;;;;;;;;;15.40;99.90;;;;;;5466434;26;19940;-63
2024/04/09 06:52:31;;;;;;;;;;;15.50;99.90;;;;;;5478280;26;20788;-63
2024/04/09 06:54:59;;;;;;;;;;;15.60;99.90;;;;;;5438628;26;19966;-63
2024/04/09 06:57:26;;;;;;;;;;;15.80;99.90;;;;;;5462507;26;19940;-63
2024/04/09 06:59:58;;;;;;;;;;;15.80;99.90;;;;;;5442060;26;19929;-63
2024/04/09 07:02:25;;;;;;;;;;;15.90;99.90;;;;;;5452759;26;19928;-63
2024/04/09 07:04:52;;;;;;;;;;;16.00;99.90;;;;;;5435742;26;19929;-63
2024/04/09 07:07:19;;;;;;;;;;;16.10;99.90;;;;;;5477188;26;19943;-63
2024/04/09 07:09:52;;;;;;;;;;;16.20;99.90;;;;;;5434196;26;19939;-63
2024/04/09 07:12:19;;;;;;;;;;;16.20;99.90;;;;;;5474666;26;20306;-63
2024/04/09 07:14:45;;;;;;;;;;;16.20;99.90;;;;;;5441770;26;19928;-63
2024/04/09 07:17:12;;;;;;;;;;;16.20;99.90;;;;;;5439029;26;19996;-63
2024/04/09 07:19:39;;;;;;;;;;;16.20;99.90;;;;;;5450837;26;19977;-63
2024/04/09 07:22:11;;;;;;;;;;;16.10;99.90;;;;;;5435482;26;20706;-63
2024/04/09 07:24:42;;;;;;;;;;;16.10;99.90;;;;;;5433277;26;19955;-63
2024/04/09 07:27:09;;;;;;;;;;;16.10;99.90;;;;;;5463576;26;19934;-63
2024/04/09 07:29:36;;;;;;;;;;;16.10;99.90;;;;;;5476537;26;19943;-62
2024/04/09 07:32:08;;;;;;;;;;;16.10;99.90;;;;;;5435559;26;20376;-63
2024/04/09 07:34:43;;;;;;;;;;;16.10;99.90;;;;;;5471648;26;20787;-63
2024/04/09 07:37:15;;;;;;;;;;;16.20;99.90;;;;;;5450613;26;20375;-63
2024/04/09 07:39:46;;;;;;;;;;;16.30;99.90;;;;;;5473061;26;19940;-63
2024/04/09 07:42:18;;;;;;;;;;;16.30;99.90;;;;;;5471341;26;19936;-63
2024/04/09 07:44:45;;;;;;;;;;;16.40;99.90;;;;;;5466589;26;20352;-63
2024/04/09 07:47:20;;;;;;;;;;;16.50;99.90;;;;;;5471909;26;19932;-63
2024/04/09 07:49:55;;;;;;;;;;;16.60;99.90;;;;;;5468091;26;19935;-63
2024/04/09 07:52:26;;;;;;;;;;;16.70;99.90;;;;;;5459168;26;19928;-63
2024/04/09 07:54:53;;;;;;;;;;;16.70;99.90;;;;;;5449798;26;19944;-63
2024/04/09 07:57:25;;;;;;;;;;;16.80;99.90;;;;;;5463986;26;19944;-63
2024/04/09 07:59:58;;;;;;;;;;;16.90;99.90;;;;;;5442601;26;20009;-63
2024/04/09 08:02:25;;;;;;;;;;;17.00;99.90;;;;;;5474190;26;19983;-63
2024/04/09 08:04:52;;;;;;;;;;;17.10;99.90;;;;;;5438321;26;19932;-63
2024/04/09 08:07:19;;;;;;;;;;;17.10;99.90;;;;;;5475481;26;19935;-63
2024/04/09 08:09:50;;;;;;;;;;;17.20;99.90;;;;;;5448434;26;20412;-63
2024/04/09 08:12:17;;;;;;;;;;;17.30;99.90;;;;;;5418075;26;19932;-63
2024/04/09 08:14:44;;;;;;;;;;;17.30;99.90;;;;;;5459495;26;19940;-63
2024/04/09 08:17:11;;;;;;;;;;;17.30;99.90;;;;;;5454810;26;20000;-63
2024/04/09 08:19:38;;;;;;;;;;;17.30;99.90;;;;;;5464600;26;19940;-63
2024/04/09 08:22:06;;;;;;;;;;;17.30;99.90;;;;;;5468314;26;20380;-63
2024/04/09 08:24:38;;;;;;;;;;;17.30;99.90;;;;;;5470184;26;19948;-62
2024/04/09 08:27:10;;;;;;;;;;;17.20;99.90;;;;;;5471796;26;20342;-63
2024/04/09 08:29:37;;;;;;;;;;;17.30;99.90;;;;;;5471378;26;19956;-63
2024/04/09 08:32:05;;;;;;;;;;;17.30;99.90;;;;;;5471757;26;20376;-63
2024/04/09 08:34:32;;;;;;;;;;;17.40;99.90;;;;;;5475552;26;19928;-63
2024/04/09 08:36:58;;;;;;;;;;;17.40;99.90;;;;;;5434557;26;19932;-63
2024/04/09 08:39:30;;;;;;;;;;;17.50;99.90;;;;;;5449329;26;20004;-63
2024/04/09 08:41:57;;;;;;;;;;;17.70;99.90;;;;;;5471209;26;19960;-62
2024/04/09 08:44:30;;;;;;;;;;;17.80;99.90;;;;;;5460401;26;19928;-63
2024/04/09 08:46:59;;;;;;;;;;;17.90;99.90;;;;;;5470493;26;20396;-62
2024/04/09 08:49:26;;;;;;;;;;;18.00;99.90;;;;;;5474289;26;19941;-63
2024/04/09 08:51:54;;;;;;;;;;;17.90;99.90;;;;;;5470149;26;20404;-63
2024/04/09 08:54:20;;;;;;;;;;;17.90;99.90;;;;;;5478402;26;19935;-63
2024/04/09 08:56:47;;;;;;;;;;;17.90;99.90;;;;;;5475153;26;19996;-63
2024/04/09 08:59:21;;;;;;;;;;;18.00;99.90;;;;;;5476070;26;20376;-63
2024/04/09 09:01:48;;;;;;;;;;;18.10;99.90;;;;;;5471709;26;19928;-63
2024/04/09 09:04:15;;;;;;;;;;;18.10;99.90;;;;;;5471499;26;19932;-63
2024/04/09 09:06:45;;;;;;;;;;;18.10;99.90;;;;;;5468199;26;19928;-62
2024/04/09 09:09:24;;;;;;;;;;;18.10;99.90;;;;;;5452126;26;19997;-63
2024/04/09 09:11:52;;;;;;;;;;;18.10;99.90;;;;;;5460678;26;19928;-63
2024/04/09 09:14:19;;;;;;;;;;;18.10;99.90;;;;;;5465177;26;20292;-63
2024/04/09 09:16:46;;;;;;;;;;;18.10;99.90;;;;;;5464755;26;19939;-63
2024/04/09 09:19:14;;;;;;;;;;;18.20;99.90;;;;;;5476025;26;19956;-63
2024/04/09 09:21:41;;;;;;;;;;;18.10;99.90;;;;;;5452366;26;19943;-63
2024/04/09 09:24:08;;;;;;;;;;;18.20;99.90;;;;;;5442535;26;20360;-63
2024/04/09 09:26:35;;;;;;;;;;;18.20;99.90;;;;;;5443389;26;20628;-63
2024/04/09 09:29:02;;;;;;;;;;;18.30;99.90;;;;;;5475566;26;19928;-64
2024/04/09 09:31:31;;;;;;;;;;;18.30;99.90;;;;;;5467357;26;19930;-63
2024/04/09 09:33:59;;;;;;;;;;;18.30;99.90;;;;;;5467062;26;20264;-62
2024/04/09 09:36:26;;;;;;;;;;;18.40;99.90;;;;;;5472376;26;19928;-63
2024/04/09 09:38:58;;;;;;;;;;;18.40;99.90;;;;;;5431325;26;19929;-63
2024/04/09 09:41:31;;;;;;;;;;;18.50;99.90;;;;;;5455741;26;20273;-63
2024/04/09 09:43:58;;;;;;;;;;;18.50;99.90;;;;;;5469981;26;19928;-63
2024/04/09 09:46:25;;;;;;;;;;;18.50;99.90;;;;;;5468207;26;19936;-63
2024/04/09 09:48:55;;;;;;;;;;;18.50;99.90;;;;;;5473881;26;19960;-63
2024/04/09 09:51:22;;;;;;;;;;;18.50;99.90;;;;;;5474295;26;20412;-62
2024/04/09 09:53:48;;;;;;;;;;;18.50;99.90;;;;;;5446953;26;19928;-63
2024/04/09 09:56:16;;;;;;;;;;;18.60;99.90;;;;;;5467357;26;19928;-63
2024/04/09 09:58:43;;;;;;;;;;;18.60;99.90;;;;;;5454491;26;19958;-63
2024/04/09 10:01:10;;;;;;;;;;;18.60;99.90;;;;;;5465732;26;20286;-63
2024/04/09 10:03:39;;;;;;;;;;;18.70;99.90;;;;;;5464646;26;19953;-63
2024/04/09 10:06:07;;;;;;;;;;;18.60;99.90;;;;;;5450984;26;20307;-62
2024/04/09 10:08:40;;;;;;;;;;;18.60;99.90;;;;;;5406384;26;19940;-63
2024/04/09 10:11:07;;;;;;;;;;;18.60;99.90;;;;;;5470221;26;20536;-63
2024/04/09 10:13:50;;;;;;;;;;;18.60;99.90;;;;;;5445590;26;19939;-63
2024/04/09 10:16:18;;;;;;;;;;;18.50;99.90;;;;;;5472408;26;19927;-63
2024/04/09 10:18:50;;;;;;;;;;;18.50;99.90;;;;;;5470687;26;19935;-63
2024/04/09 10:21:27;;;;;;;;;;;18.40;99.90;;;;;;5473952;26;19939;-63
2024/04/09 10:24:01;;;;;;;;;;;18.40;99.90;;;;;;5436853;26;19939;-62
2024/04/09 10:26:31;;;;;;;;;;;18.40;99.90;;;;;;5464888;26;19929;-63
2024/04/09 10:29:05;;;;;;;;;;;18.50;99.90;;;;;;5428385;26;19955;-63
2024/04/09 10:31:41;;;;;;;;;;;18.60;99.90;;;;;;5467493;26;20388;-63
2024/04/09 10:34:09;;;;;;;;;;;18.60;99.90;;;;;;5461079;26;19932;-63
2024/04/09 10:36:43;;;;;;;;;;;18.70;99.90;;;;;;5456481;26;19935;-63
2024/04/09 10:39:16;;;;;;;;;;;18.80;99.90;;;;;;5439128;26;19929;-63
2024/04/09 10:41:56;;;;;;;;;;;18.70;99.90;;;;;;5471031;26;19935;-62
2024/04/09 10:44:23;;;;;;;;;;;17.70;99.90;;;;;;5478473;26;19928;-62
2024/04/09 10:46:50;;;;;;;;;;;16.60;99.90;;;;;;5477561;26;19968;-62
2024/04/09 10:49:20;;;;;;;;;;;15.80;99.90;;;;;;5451521;26;19956;-62
2024/04/09 10:51:52;;;;;;;;;;;15.40;99.90;;;;;;5446989;26;20279;-63
2024/04/09 10:54:23;;;;;;;;;;;14.90;99.90;;;;;;5441360;26;19929;-62
2024/04/09 10:56:59;;;;;;;;;;;14.50;99.90;;;;;;5449946;26;19928;-62
2024/04/09 10:59:26;;;;;;;;;;;14.30;99.90;;;;;;5469298;26;19939;-62
2024/04/09 11:01:54;;;;;;;;;;;14.10;99.90;;;;;;5475639;26;19996;-63
2024/04/09 11:04:21;;;;;;;;;;;14.00;99.90;;;;;;5450411;26;19968;-62
2024/04/09 11:06:53;;;;;;;;;;;13.80;99.90;;;;;;5441031;26;19928;-62
2024/04/09 11:09:20;;;;;;;;;;;13.70;99.90;;;;;;5476509;26;19934;-62
2024/04/09 11:11:47;;;;;;;;;;;13.60;99.90;;;;;;5472275;26;20001;-62
2024/04/09 11:14:14;;;;;;;;;;;13.50;99.90;;;;;;5467935;26;19964;-62
2024/04/09 11:16:46;;;;;;;;;;;13.60;99.90;;;;;;5481075;26;19928;-62
2024/04/09 11:19:20;;;;;;;;;;;13.70;99.90;;;;;;5477024;26;19956;-63
2024/04/09 11:21:52;;;;;;;;;;;13.80;99.90;;;;;;5432987;26;19929;-62
2024/04/09 11:24:19;;;;;;;;;;;13.70;99.90;;;;;;5464709;26;19936;-62
2024/04/09 11:26:46;;;;;;;;;;;13.80;99.90;;;;;;5469866;26;20026;-62
2024/04/09 11:29:19;;;;;;;;;;;13.70;99.90;;;;;;5473967;26;19928;-63
2024/04/09 11:31:51;;;;;;;;;;;13.70;99.90;;;;;;5445483;26;20649;-62
2024/04/09 11:34:28;;;;;;;;;;;13.70;99.90;;;;;;5470353;26;19928;-62
2024/04/09 11:36:55;;;;;;;;;;;13.70;99.90;;;;;;5441833;26;19928;-62
2024/04/09 11:39:27;;;;;;;;;;;13.60;99.90;;;;;;5484845;26;19939;-62
2024/04/09 11:41:54;;;;;;;;;;;13.50;99.90;;;;;;5473254;26;19960;-62
2024/04/09 11:44:26;;;;;;;;;;;13.40;99.90;;;;;;5468960;26;19929;-62
2024/04/09 11:46:52;;;;;;;;;;;13.30;99.90;;;;;;5472332;26;19928;-62
2024/04/09 11:49:19;;;;;;;;;;;13.10;99.90;;;;;;5446866;26;19932;-63
2024/04/09 11:51:46;;;;;;;;;;;13.10;99.90;;;;;;5452511;26;19997;-62
2024/04/09 11:54:13;;;;;;;;;;;12.90;99.90;;;;;;5477774;26;19940;-62
2024/04/09 11:56:40;;;;;;;;;;;12.80;99.90;;;;;;5446662;26;19936;-62
2024/04/09 11:59:07;;;;;;;;;;;12.70;99.90;;;;;;5474466;26;19928;-63
2024/04/09 12:01:34;;;;;;;;;;;12.70;99.90;;;;;;5481040;26;20276;-62
2024/04/09 12:04:01;;;;;;;;;;;12.50;99.90;;;;;;5476259;26;19996;-62
2024/04/09 12:06:30;;;;;;;;;;;12.50;99.90;;;;;;5471250;26;20483;-62
2024/04/09 12:08:57;;;;;;;;;;;12.50;99.90;;;;;;5467802;26;19933;-62
2024/04/09 12:11:25;;;;;;;;;;;12.50;99.90;;;;;;5474277;26;20000;-62
2024/04/09 12:13:52;;;;;;;;;;;12.50;99.90;;;;;;5449096;26;19928;-62
2024/04/09 12:16:19;;;;;;;;;;;12.40;99.90;;;;;;5465685;26;19951;-62
2024/04/09 12:18:45;;;;;;;;;;;12.40;99.90;;;;;;5477822;26;19936;-62
2024/04/09 12:21:12;;;;;;;;;;;12.30;99.90;;;;;;5442261;26;19934;-62
2024/04/09 12:23:39;;;;;;;;;;;12.20;99.90;;;;;;5473780;26;19936;-62
2024/04/09 12:26:06;;;;;;;;;;;12.10;99.90;;;;;;5474404;26;19938;-62
2024/04/09 12:28:33;;;;;;;;;;;12.10;99.90;;;;;;5446538;26;19928;-62
2024/04/09 12:31:00;;;;;;;;;;;12.10;99.90;;;;;;5467818;26;19928;-62
2024/04/09 12:33:29;;;;;;;;;;;12.00;99.90;;;;;;5475899;26;21495;-62
2024/04/09 12:35:55;;;;;;;;;;;12.00;99.90;;;;;;5471170;26;19928;-62
2024/04/09 12:38:27;;;;;;;;;;;11.90;99.90;;;;;;5433805;26;20126;-63
2024/04/09 12:40:59;;;;;;;;;;;11.90;99.90;;;;;;5410573;26;19960;-62
2024/04/09 12:43:31;;;;;;;;;;;11.80;99.90;;;;;;5468334;26;19928;-62
2024/04/09 12:45:58;;;;;;;;;;;11.80;99.90;;;;;;5471201;26;19943;-63
2024/04/09 12:48:25;;;;;;;;;;;11.90;99.90;;;;;;5435279;26;19928;-62
2024/04/09 12:50:51;;;;;;;;;;;11.80;99.90;;;;;;5440127;26;20364;-62
2024/04/09 12:53:18;;;;;;;;;;;11.80;99.90;;;;;;5475632;26;20361;-62
2024/04/09 12:55:47;;;;;;;;;;;11.80;99.90;;;;;;5472199;26;19928;-63
2024/04/09 12:58:15;;;;;;;;;;;11.80;99.90;;;;;;5474286;26;19936;-62
2024/04/09 13:00:42;;;;;;;;;;;11.80;99.90;;;;;;5469044;26;19999;-62
2024/04/09 13:03:09;;;;;;;;;;;11.90;99.90;;;;;;5446964;26;19928;-62
2024/04/09 13:05:36;;;;;;;;;;;11.90;99.90;;;;;;5471745;26;19980;-62
2024/04/09 13:08:03;;;;;;;;;;;12.00;99.90;;;;;;5447839;26;19929;-62
2024/04/09 13:10:30;;;;;;;;;;;12.00;99.90;;;;;;5465291;26;20383;-62
2024/04/09 13:13:02;;;;;;;;;;;12.00;99.90;;;;;;5468285;26;19936;-62
2024/04/09 13:15:28;;;;;;;;;;;11.90;99.90;;;;;;5436325;26;19934;-62
2024/04/09 13:17:55;;;;;;;;;;;11.90;99.90;;;;;;5467824;26;19952;-62
2024/04/09 13:20:22;;;;;;;;;;;11.90;99.90;;;;;;5471112;26;19928;-62
2024/04/09 13:22:49;;;;;;;;;;;11.80;99.90;;;;;;5477278;26;19932;-62
2024/04/09 13:25:16;;;;;;;;;;;11.70;99.90;;;;;;5449133;26;19936;-63
2024/04/09 13:27:42;;;;;;;;;;;11.60;99.90;;;;;;5462566;26;19960;-62
2024/04/09 13:30:12;;;;;;;;;;;11.50;99.90;;;;;;5449528;26;20361;-62
2024/04/09 13:32:39;;;;;;;;;;;11.50;99.90;;;;;;5408259;26;19932;-62
2024/04/09 13:35:11;;;;;;;;;;;11.40;99.90;;;;;;5425802;26;19940;-62
2024/04/09 13:37:43;;;;;;;;;;;11.30;99.90;;;;;;5478038;26;20554;-62
2024/04/09 13:40:11;;;;;;;;;;;11.20;99.90;;;;;;5471246;26;20005;-62
2024/04/09 13:42:44;;;;;;;;;;;11.10;99.90;;;;;;5474421;26;19929;-62
2024/04/09 13:45:16;;;;;;;;;;;11.10;99.90;;;;;;5477311;26;19928;-62
2024/04/09 13:47:48;;;;;;;;;;;11.10;99.90;;;;;;5446484;26;19928;-62
2024/04/09 13:50:16;;;;;;;;;;;11.10;99.90;;;;;;5473418;26;20004;-63
2024/04/09 13:52:43;;;;;;;;;;;11.00;99.90;;;;;;5450026;26;19929;-62
2024/04/09 13:55:10;;;;;;;;;;;10.80;99.90;;;;;;5473445;26;19935;-62
2024/04/09 13:57:38;;;;;;;;;;;10.80;99.90;;;;;;5454027;26;19934;-62
2024/04/09 14:00:07;;;;;;;;;;;10.80;99.90;;;;;;5461971;26;20005;-62
2024/04/09 14:02:39;;;;;;;;;;;10.70;99.90;;;;;;5475964;26;19952;-62
2024/04/09 14:05:06;;;;;;;;;;;10.70;99.90;;;;;;5465625;26;19935;-62
2024/04/09 14:07:33;;;;;;;;;;;10.80;99.90;;;;;;5474088;26;19936;-63
2024/04/09 14:10:01;;;;;;;;;;;10.90;99.90;;;;;;5447066;26;19932;-62
2024/04/09 14:12:28;;;;;;;;;;;10.90;99.90;;;;;;5472279;26;19928;-62
2024/04/09 14:14:59;;;;;;;;;;;10.80;99.90;;;;;;5477535;26;19939;-62
2024/04/09 14:17:34;;;;;;;;;;;10.80;99.90;;;;;;5446419;26;19956;-62
2024/04/09 14:20:14;;;;;;;;;;;10.80;99.90;;;;;;5477240;26;19928;-63
2024/04/09 14:22:41;;;;;;;;;;;10.90;99.90;;;;;;5460410;26;19936;-62
2024/04/09 14:25:08;;;;;;;;;;;10.80;99.90;;;;;;5447916;26;19932;-62